Time;durP1;ratioP1;P1;durP2;ratioP2;P2;SDS_P1;SDS_P2;PMS_P1;PMS_P2;Temp;Humidity;BMP_temperature;BMP_pressure;BME280_temperature;BME280_humidity;BME280_pressure;Samples;Min_cycle;Max_cycle;Signal;HPM_P1;HPM_P2
2023/09/20 00:01:53;;;;;;;5.47;5.10;;;;;;;16.38;87.54;100296.91;6028903;23;20043;-72
2023/09/20 00:04:20;;;;;;;5.53;5.22;;;;;;;16.43;87.69;100302.66;6028705;23;20055;-71
2023/09/20 00:06:47;;;;;;;6.72;5.40;;;;;;;16.31;88.12;100296.56;5999616;23;20026;-71
2023/09/20 00:09:15;;;;;;;5.85;5.40;;;;;;;16.30;88.57;100309.94;5971578;23;20033;-71
2023/09/20 00:11:44;;;;;;;5.88;5.57;;;;;;;16.25;89.95;100317.41;6028671;23;20027;-70
2023/09/20 00:14:11;;;;;;;6.78;6.47;;;;;;;16.19;90.95;100325.88;5998391;23;20028;-71
2023/09/20 00:16:37;;;;;;;5.85;5.45;;;;;;;16.02;90.96;100303.44;6022819;23;20590;-70
2023/09/20 00:19:04;;;;;;;5.65;5.35;;;;;;;16.09;91.78;100321.31;6000135;23;20493;-70
2023/09/20 00:21:30;;;;;;;5.70;5.40;;;;;;;15.81;91.75;100290.13;6001626;23;20097;-70
2023/09/20 00:23:56;;;;;;;5.53;5.15;;;;;;;15.84;92.09;100297.81;6021444;23;20022;-70
2023/09/20 00:26:23;;;;;;;5.65;5.20;;;;;;;15.97;92.99;100337.34;5996092;23;20052;-71
2023/09/20 00:28:49;;;;;;;5.55;5.20;;;;;;;15.50;94.21;100271.38;6026956;23;20193;-70
2023/09/20 00:31:16;;;;;;;5.80;5.50;;;;;;;15.44;94.60;100263.94;5999743;23;20107;-71
2023/09/20 00:33:43;;;;;;;5.68;5.38;;;;;;;15.90;95.51;100334.38;6047454;23;20022;-71
2023/09/20 00:36:19;;;;;;;5.70;5.10;;;;;;;15.89;95.64;100344.09;6029596;23;20524;-71
2023/09/20 00:38:47;;;;;;;5.60;5.30;;;;;;;15.64;95.58;100304.69;6055065;23;20038;-71
2023/09/20 00:41:15;;;;;;;5.80;5.50;;;;;;;14.96;96.52;100199.81;6024673;23;20030;-72
2023/09/20 00:43:41;;;;;;;6.03;5.53;;;;;;;15.46;96.86;100296.41;6056560;23;20046;-70
2023/09/20 00:46:09;;;;;;;5.80;5.40;;;;;;;15.73;97.59;100355.06;6024928;23;20450;-70
2023/09/20 00:48:38;;;;;;;12.82;5.45;;;;;;;15.50;98.56;100325.13;6055718;23;20091;-70
2023/09/20 00:51:06;;;;;;;6.93;5.20;;;;;;;15.42;99.28;100316.94;6025502;23;20034;-70
2023/09/20 00:53:35;;;;;;;6.68;5.05;;;;;;;15.35;99.60;100308.66;6051675;23;20066;-70
2023/09/20 00:56:05;;;;;;;5.15;4.85;;;;;;;15.60;100.00;100369.38;6027558;23;20061;-71
2023/09/20 00:58:34;;;;;;;5.20;4.90;;;;;;;15.58;100.00;100366.00;6037370;23;20026;-70
2023/09/20 01:01:03;;;;;;;5.78;5.15;;;;;;;15.54;100.00;100366.22;6001541;23;20031;-71
2023/09/20 01:03:35;;;;;;;5.40;5.10;;;;;;;15.24;100.00;100342.19;6021375;23;20583;-72
2023/09/20 01:06:09;;;;;;;5.10;4.80;;;;;;;15.30;100.00;100334.59;5999354;23;20482;-70
2023/09/20 01:08:35;;;;;;;5.35;5.05;;;;;;;15.15;100.00;100309.34;6021201;23;20023;-71
2023/09/20 01:11:02;;;;;;;5.60;5.30;;;;;;;15.48;100.00;100371.16;5994563;23;20034;-70
2023/09/20 01:13:29;;;;;;;5.30;5.00;;;;;;;14.50;100.00;100213.06;6043132;23;20485;-70
2023/09/20 01:15:56;;;;;;;7.13;5.13;;;;;;;15.06;100.00;100305.63;6023852;23;20023;-72
2023/09/20 01:18:22;;;;;;;5.05;4.85;;;;;;;15.10;100.00;100311.53;6052321;23;20014;-70
2023/09/20 01:20:49;;;;;;;10.00;5.32;;;;;;;15.39;100.00;100361.28;6023684;23;20532;-69
2023/09/20 01:23:15;;;;;;;5.50;5.20;;;;;;;13.89;100.00;100112.97;6022686;23;20128;-70
2023/09/20 01:25:43;;;;;;;5.75;5.38;;;;;;;15.35;100.00;100361.53;6057279;23;20030;-72
2023/09/20 01:28:10;;;;;;;5.30;5.00;;;;;;;15.30;100.00;100349.63;6029404;23;20014;-70
2023/09/20 01:30:41;;;;;;;5.38;5.07;;;;;;;15.22;100.00;100346.75;6024505;23;20035;-70
2023/09/20 01:33:08;;;;;;;5.57;5.28;;;;;;;15.02;100.00;100314.75;6029335;23;20037;-71
2023/09/20 01:35:36;;;;;;;5.78;5.28;;;;;;;15.23;100.00;100357.19;6030393;23;20604;-70
2023/09/20 01:38:05;;;;;;;5.10;4.90;;;;;;;14.99;100.00;100330.84;6030149;23;20096;-70
2023/09/20 01:40:33;;;;;;;8.50;5.47;;;;;;;15.09;100.00;100362.69;6055158;23;20026;-70
2023/09/20 01:43:00;;;;;;;5.20;4.93;;;;;;;15.01;100.00;100328.91;6025781;23;20074;-70
2023/09/20 01:45:27;;;;;;;5.40;5.10;;;;;;;14.61;100.00;100273.00;6050626;23;20034;-71
2023/09/20 01:47:55;;;;;;;5.47;5.18;;;;;;;15.18;100.00;100371.75;6031074;23;20022;-72
2023/09/20 01:50:24;;;;;;;5.47;5.18;;;;;;;15.18;100.00;100371.75;6056096;23;20014;-70
2023/09/20 01:52:53;;;;;;;5.25;4.85;;;;;;;14.80;100.00;100310.28;6029324;23;20027;-72
2023/09/20 01:55:21;;;;;;;8.50;5.57;;;;;;;14.83;100.00;100302.09;6057040;23;20030;-70
2023/09/20 01:57:48;;;;;;;5.75;5.35;;;;;;;15.21;100.00;100361.75;6028412;23;20048;-70
2023/09/20 02:00:22;;;;;;;5.22;5.03;;;;;;;15.29;100.00;100358.50;6027904;23;20034;-70
2023/09/20 02:02:50;;;;;;;5.45;5.15;;;;;;;14.70;100.00;100259.94;6051707;23;20449;-70
2023/09/20 02:05:17;;;;;;;5.95;5.50;;;;;;;15.02;100.00;100301.53;6004541;23;20047;-70
2023/09/20 02:07:48;;;;;;;5.22;5.03;;;;;;;15.11;100.00;100314.06;6010444;23;20023;-70
2023/09/20 02:10:16;;;;;;;5.95;5.45;;;;;;;15.40;100.00;100347.97;6027697;23;20101;-70
2023/09/20 02:12:47;;;;;;;5.50;5.20;;;;;;;15.25;100.00;100320.91;6005071;23;20446;-70
2023/09/20 02:15:14;;;;;;;5.13;4.93;;;;;;;15.40;100.00;100334.72;6027695;23;20030;-70
2023/09/20 02:17:41;;;;;;;5.50;5.15;;;;;;;15.41;100.00;100333.75;6016847;23;20020;-70
2023/09/20 02:20:10;;;;;;;5.70;5.40;;;;;;;15.37;100.00;100329.69;6024078;23;20038;-70
2023/09/20 02:22:38;;;;;;;5.47;5.18;;;;;;;15.33;100.00;100336.16;6007175;23;20011;-70
2023/09/20 02:25:10;;;;;;;5.40;5.07;;;;;;;15.30;100.00;100334.59;6057329;23;20105;-70
2023/09/20 02:27:41;;;;;;;5.38;5.00;;;;;;;15.25;100.00;100333.28;6027557;23;20050;-70
2023/09/20 02:30:15;;;;;;;5.50;5.00;;;;;;;15.27;100.00;100342.75;6058035;23;20082;-70
2023/09/20 02:32:42;;;;;;;7.25;5.25;;;;;;;14.84;100.00;100284.47;6001545;23;20679;-70
2023/09/20 02:35:10;;;;;;;5.50;5.20;;;;;;;14.57;100.00;100256.53;6033430;23;20457;-71
2023/09/20 02:37:38;;;;;;;5.97;5.57;;;;;;;15.12;100.00;100350.09;6056351;23;20027;-70
2023/09/20 02:40:09;;;;;;;5.20;4.90;;;;;;;15.20;100.00;100364.53;6028413;23;20037;-70
2023/09/20 02:42:46;;;;;;;5.97;5.53;;;;;;;15.07;100.00;100354.88;6022595;23;20097;-70
2023/09/20 02:45:13;;;;;;;5.78;5.43;;;;;;;15.11;100.00;100356.34;6053505;23;20040;-70
2023/09/20 02:47:40;;;;;;;5.50;5.20;;;;;;;14.94;100.00;100333.00;6027682;23;20025;-70
2023/09/20 02:50:08;;;;;;;5.15;4.95;;;;;;;14.82;100.00;100320.75;6028897;23;20038;-72
2023/09/20 02:52:35;;;;;;;5.80;5.40;;;;;;;14.99;100.00;100351.16;6021080;23;20019;-70
2023/09/20 02:55:06;;;;;;;5.55;5.25;;;;;;;14.97;100.00;100361.81;6031207;23;20047;-71
2023/09/20 02:57:37;;;;;;;5.50;5.20;;;;;;;14.01;100.00;100222.88;6001932;23;20098;-71
2023/09/20 03:00:15;;;;;;;10.70;5.38;;;;;;;14.83;100.00;100362.88;5997694;23;20496;-71
2023/09/20 03:02:46;;;;;;;5.40;5.10;;;;;;;14.80;100.00;100371.03;6000062;23;20022;-72
2023/09/20 03:05:15;;;;;;;5.45;5.20;;;;;;;14.76;100.00;100372.22;6029974;23;20043;-71
2023/09/20 03:07:46;;;;;;;5.40;5.10;;;;;;;14.35;100.00;100313.59;6002527;23;20023;-72
2023/09/20 03:10:13;;;;;;;6.00;5.28;;;;;;;14.68;100.00;100393.09;6020038;23;20145;-71
2023/09/20 03:12:43;;;;;;;5.85;5.45;;;;;;;13.22;100.00;100142.50;6056981;23;20567;-71
2023/09/20 03:15:11;;;;;;;5.60;5.30;;;;;;;14.73;100.00;100372.44;6029732;23;20031;-71
2023/09/20 03:17:39;;;;;;;5.60;5.30;;;;;;;14.75;100.00;100367.88;6020135;23;20046;-71
2023/09/20 03:20:10;;;;;;;5.75;5.35;;;;;;;14.69;100.00;100355.13;6029775;23;20013;-71
2023/09/20 03:22:38;;;;;;;7.43;5.40;;;;;;;14.68;100.00;100364.88;6030847;23;20023;-71
2023/09/20 03:25:09;;;;;;;5.68;5.18;;;;;;;14.59;100.00;100360.25;6032732;23;20039;-71
2023/09/20 03:27:36;;;;;;;5.80;5.38;;;;;;;14.24;100.00;100302.97;6021123;23;20019;-71
2023/09/20 03:30:03;;;;;;;5.60;5.30;;;;;;;14.53;100.00;100358.06;6024097;23;20031;-71
2023/09/20 03:32:29;;;;;;;5.70;5.30;;;;;;;14.45;100.00;100361.28;5999420;23;20718;-71
2023/09/20 03:34:56;;;;;;;5.97;5.47;;;;;;;14.44;100.00;100367.50;6026948;23;20034;-72
2023/09/20 03:37:22;;;;;;;5.50;5.20;;;;;;;14.44;100.00;100356.09;5996612;23;20015;-72
2023/09/20 03:39:51;;;;;;;5.65;5.25;;;;;;;13.66;100.00;100238.66;6021051;23;20023;-72
2023/09/20 03:42:17;;;;;;;5.72;5.40;;;;;;;14.27;100.00;100344.13;6002489;23;20031;-72
2023/09/20 03:44:45;;;;;;;5.90;5.43;;;;;;;14.37;100.00;100360.97;6031729;23;20347;-72
2023/09/20 03:47:11;;;;;;;5.90;5.50;;;;;;;14.35;100.00;100357.59;6051779;23;20061;-71
2023/09/20 03:49:38;;;;;;;9.00;5.45;;;;;;;14.25;100.00;100349.53;6000725;23;20548;-74
2023/09/20 03:52:06;;;;;;;5.55;5.20;;;;;;;14.13;100.00;100338.09;6001592;23;20102;-71
2023/09/20 03:54:32;;;;;;;5.65;5.35;;;;;;;14.25;100.00;100362.75;5999326;23;20029;-71
2023/09/20 03:56:59;;;;;;;5.70;5.25;;;;;;;14.22;100.00;100362.97;6021011;23;20094;-72
2023/09/20 03:59:26;;;;;;;6.03;5.18;;;;;;;13.84;100.00;100311.16;6006317;23;20515;-72
2023/09/20 04:01:53;;;;;;;6.45;5.13;;;;;;;13.56;100.00;100267.47;6029807;23;20049;-72
2023/09/20 04:04:19;;;;;;;10.60;5.30;;;;;;;14.16;100.00;100368.69;5999462;23;20035;-72
2023/09/20 04:06:46;;;;;;;5.82;5.45;;;;;;;13.72;100.00;100290.94;6024960;23;20039;-71
2023/09/20 04:09:12;;;;;;;6.25;5.65;;;;;;;14.16;100.00;100361.59;6026913;23;20379;-71
2023/09/20 04:11:40;;;;;;;5.80;5.45;;;;;;;14.14;100.00;100360.88;6027511;23;20105;-72
2023/09/20 04:14:08;;;;;;;6.40;6.00;;;;;;;13.76;100.00;100295.88;6026038;23;20746;-71
2023/09/20 04:16:39;;;;;;;5.82;5.25;;;;;;;14.08;100.00;100355.19;6023584;23;20434;-71
2023/09/20 04:19:07;;;;;;;5.43;5.03;;;;;;;14.06;100.00;100352.66;6010137;23;20039;-70
2023/09/20 04:21:33;;;;;;;5.00;4.80;;;;;;;14.10;100.00;100359.41;6028119;23;20465;-71
2023/09/20 04:24:00;;;;;;;5.90;5.50;;;;;;;14.08;100.00;100358.69;6024612;23;20037;-71
2023/09/20 04:26:26;;;;;;;5.35;5.03;;;;;;;14.09;100.00;100356.88;6048478;23;20018;-71
2023/09/20 04:28:55;;;;;;;5.60;5.20;;;;;;;13.86;100.00;100325.09;6022316;23;20088;-71
2023/09/20 04:31:22;;;;;;;5.95;5.55;;;;;;;14.06;100.00;100350.03;5999962;23;20105;-71
2023/09/20 04:33:49;;;;;;;5.80;5.50;;;;;;;14.04;100.00;100357.22;6005549;23;20027;-71
2023/09/20 04:36:15;;;;;;;6.72;6.05;;;;;;;13.71;100.00;100302.44;6019779;23;20046;-69
2023/09/20 04:38:42;;;;;;;6.05;5.60;;;;;;;14.00;100.00;100352.28;6015916;23;20576;-71
2023/09/20 04:41:12;;;;;;;5.90;5.50;;;;;;;13.84;100.00;100334.91;6024039;23;20042;-71
2023/09/20 04:43:39;;;;;;;5.75;5.25;;;;;;;13.66;100.00;100309.84;6023468;23;20042;-72
2023/09/20 04:46:06;;;;;;;6.00;5.60;;;;;;;13.96;100.00;100367.47;6027183;23;20446;-71
2023/09/20 04:48:33;;;;;;;5.65;5.25;;;;;;;13.96;100.00;100367.47;6027104;23;20050;-73
2023/09/20 04:51:00;;;;;;;5.72;5.32;;;;;;;13.98;100.00;100378.75;6025265;23;20101;-71
2023/09/20 04:53:26;;;;;;;5.25;5.03;;;;;;;14.00;100.00;100376.03;6050656;23;20047;-71
2023/09/20 04:55:53;;;;;;;5.35;5.05;;;;;;;13.96;100.00;100385.94;6023867;23;20027;-71
2023/09/20 04:58:20;;;;;;;8.93;6.13;;;;;;;13.39;100.00;100300.31;6055319;23;20114;-71
2023/09/20 05:00:46;;;;;;;6.15;5.70;;;;;;;13.96;100.00;100392.06;6025104;23;20026;-71
2023/09/20 05:03:15;;;;;;;6.15;5.55;;;;;;;13.96;100.00;100388.59;6052942;23;20400;-71
2023/09/20 05:05:44;;;;;;;10.50;5.55;;;;;;;13.98;100.00;100383.22;6025217;23;20033;-71
2023/09/20 05:08:13;;;;;;;6.43;5.88;;;;;;;13.75;100.00;100346.09;6055589;23;20029;-71
2023/09/20 05:10:39;;;;;;;7.35;6.68;;;;;;;13.93;100.00;100383.50;6020987;23;20096;-72
2023/09/20 05:13:06;;;;;;;6.18;5.28;;;;;;;13.90;100.00;100371.38;6053987;23;20393;-71
2023/09/20 05:15:32;;;;;;;5.60;5.30;;;;;;;13.95;100.00;100385.09;6025757;23;20287;-71
2023/09/20 05:17:59;;;;;;;8.32;6.32;;;;;;;13.94;100.00;100378.13;6048435;23;20628;-71
2023/09/20 05:20:28;;;;;;;6.00;5.47;;;;;;;13.56;100.00;100320.22;6000261;23;20019;-70
2023/09/20 05:22:55;;;;;;;5.40;5.10;;;;;;;13.94;100.00;100385.22;6053091;23;20030;-71
2023/09/20 05:25:21;;;;;;;6.40;5.78;;;;;;;13.93;100.00;100381.75;6022204;23;20042;-70
2023/09/20 05:27:48;;;;;;;6.18;5.45;;;;;;;13.95;100.00;100381.59;6048566;23;20454;-70
2023/09/20 05:30:18;;;;;;;8.15;5.50;;;;;;;13.96;100.00;100384.13;6023412;23;20026;-70
2023/09/20 05:32:46;;;;;;;5.68;5.38;;;;;;;13.94;100.00;100370.22;6041466;23;20082;-71
2023/09/20 05:35:13;;;;;;;5.75;5.45;;;;;;;13.47;100.00;100294.47;5999495;23;20027;-71
2023/09/20 05:37:39;;;;;;;5.47;5.18;;;;;;;14.07;100.00;100379.88;5998362;23;20019;-71
2023/09/20 05:40:13;;;;;;;5.47;5.07;;;;;;;13.77;100.00;100329.22;5997744;23;20043;-71
2023/09/20 05:42:40;;;;;;;5.60;5.30;;;;;;;14.13;100.00;100375.03;6023104;23;20003;-70
2023/09/20 05:45:07;;;;;;;7.20;5.30;;;;;;;14.17;100.00;100370.34;5996936;23;20505;-70
2023/09/20 05:47:35;;;;;;;9.32;6.97;;;;;;;14.18;100.00;100372.06;6021956;23;20077;-70
2023/09/20 05:50:02;;;;;;;7.00;5.70;;;;;;;14.04;100.00;100343.19;5997661;23;20031;-70
2023/09/20 05:52:28;;;;;;;6.47;6.00;;;;;;;14.33;100.00;100380.63;6003351;23;20162;-70
2023/09/20 05:54:55;;;;;;;6.00;5.65;;;;;;;14.40;100.00;100394.25;6024001;23;20809;-70
2023/09/20 05:57:22;;;;;;;5.95;5.50;;;;;;;14.22;100.00;100341.00;6022745;23;20028;-71
2023/09/20 05:59:49;;;;;;;6.25;5.68;;;;;;;13.98;100.00;100290.88;6025364;23;20212;-69
2023/09/20 06:02:15;;;;;;;6.05;5.65;;;;;;;14.37;100.00;100345.13;6018016;23;20018;-71
2023/09/20 06:04:42;;;;;;;6.50;6.00;;;;;;;14.63;100.00;100376.72;5998259;23;20492;-70
2023/09/20 06:07:08;;;;;;;6.45;5.95;;;;;;;14.63;100.00;100364.34;6001288;23;20788;-70
2023/09/20 06:09:38;;;;;;;6.05;5.55;;;;;;;14.73;100.00;100368.03;6031320;23;20015;-70
2023/09/20 06:12:05;;;;;;;5.60;5.30;;;;;;;14.78;100.00;100358.91;6001746;23;20019;-70
2023/09/20 06:14:31;;;;;;;5.35;5.05;;;;;;;14.84;100.00;100359.28;6029262;23;20874;-71
2023/09/20 06:16:58;;;;;;;6.18;5.65;;;;;;;14.91;100.00;100354.38;6051369;23;20088;-74
2023/09/20 06:19:30;;;;;;;6.55;5.75;;;;;;;14.99;100.00;100354.63;6027886;23;20084;-70
2023/09/20 06:21:57;;;;;;;6.63;5.68;;;;;;;13.57;100.00;100101.28;6051972;23;20093;-71
2023/09/20 06:24:23;;;;;;;6.05;5.53;;;;;;;14.79;100.00;100298.00;6030055;23;20441;-71
2023/09/20 06:26:52;;;;;;;5.68;5.30;;;;;;;15.21;100.00;100335.31;6026011;23;20027;-73
2023/09/20 06:29:19;;;;;;;5.47;5.18;;;;;;;15.30;100.00;100339.91;6031856;23;20034;-72
2023/09/20 06:31:45;;;;;;;5.40;5.10;;;;;;;15.38;100.00;100339.31;6025913;23;20015;-72
2023/09/20 06:34:17;;;;;;;5.00;4.80;;;;;;;15.50;100.00;100330.41;6056681;23;20019;-71
2023/09/20 06:36:44;;;;;;;5.55;5.15;;;;;;;15.24;100.00;100273.44;6027403;23;20041;-72
2023/09/20 06:39:13;;;;;;;5.38;5.07;;;;;;;15.15;100.00;100240.63;6056923;23;20028;-73
2023/09/20 06:41:42;;;;;;;6.38;5.47;;;;;;;15.08;100.00;100205.94;6026762;23;20050;-72
2023/09/20 06:44:09;;;;;;;6.20;5.80;;;;;;;15.24;100.00;100202.06;6054329;23;20041;-71
2023/09/20 06:46:35;;;;;;;10.18;5.25;;;;;;;15.98;100.00;100302.81;6023931;23;20019;-73
2023/09/20 06:49:02;;;;;;;5.63;5.32;;;;;;;16.04;100.00;100278.50;6053352;23;20030;-72
2023/09/20 06:51:28;;;;;;;6.32;5.82;;;;;;;16.11;100.00;100268.25;6024810;23;20031;-73
2023/09/20 06:53:58;;;;;;;6.78;5.90;;;;;;;15.71;100.00;100181.50;6055292;23;20104;-72
2023/09/20 06:56:25;;;;;;;5.45;5.15;;;;;;;16.37;100.00;100250.19;6028770;23;20560;-70
2023/09/20 06:58:53;;;;;;;7.22;5.57;;;;;;;16.40;100.00;100227.91;6057051;23;20026;-71
2023/09/20 07:01:20;;;;;;;5.65;5.35;;;;;;;16.11;100.00;100157.06;6003620;23;20015;-71
2023/09/20 07:03:47;;;;;;;6.20;5.65;;;;;;;16.64;100.00;100235.59;6000463;23;20031;-70
2023/09/20 07:06:14;;;;;;;5.40;5.10;;;;;;;16.67;100.00;100224.72;6026451;23;20023;-70
2023/09/20 07:08:41;;;;;;;6.22;5.68;;;;;;;16.66;100.00;100213.31;6025530;23;20461;-71
2023/09/20 07:11:11;;;;;;;6.25;5.85;;;;;;;16.54;100.00;100194.00;6059264;23;20034;-70
2023/09/20 07:13:37;;;;;;;5.57;5.28;;;;;;;16.69;100.00;100217.50;6025683;23;20027;-71
2023/09/20 07:16:08;;;;;;;5.47;5.20;;;;;;;16.74;100.00;100220.59;6027059;23;20553;-71
2023/09/20 07:18:36;;;;;;;5.70;5.20;;;;;;;16.22;100.00;100112.00;6026931;23;20014;-71
2023/09/20 07:21:02;;;;;;;6.07;5.78;;;;;;;16.71;100.00;100194.34;6023837;23;20039;-74
2023/09/20 07:23:31;;;;;;;8.00;5.63;;;;;;;16.73;100.00;100198.53;6004439;23;20563;-72
2023/09/20 07:25:59;;;;;;;5.57;5.28;;;;;;;16.74;100.00;100194.94;5995953;23;20097;-73
2023/09/20 07:28:25;;;;;;;5.50;5.20;;;;;;;16.73;100.00;100181.81;6025339;23;20019;-72
2023/09/20 07:30:55;;;;;;;5.75;5.40;;;;;;;16.73;100.00;100192.41;5999108;23;20047;-73
2023/09/20 07:33:23;;;;;;;6.18;5.65;;;;;;;16.51;100.00;100154.50;6046556;23;20417;-72
2023/09/20 07:35:58;;;;;;;5.97;5.57;;;;;;;16.68;100.00;100174.25;6026722;23;20085;-72
2023/09/20 07:38:27;;;;;;;5.32;5.03;;;;;;;16.70;100.00;100167.03;6049750;23;20097;-72
2023/09/20 07:41:17;;;;;;;6.00;5.50;;;;;;;16.89;100.00;100176.06;6027587;23;20097;-72
2023/09/20 07:43:47;;;;;;;5.82;5.20;;;;;;;16.53;100.00;100090.81;6027588;23;20110;-73
2023/09/20 07:46:20;;;;;;;5.40;5.10;;;;;;;16.69;100.00;100117.63;6055047;23;20103;-72
2023/09/20 07:48:50;;;;;;;5.95;5.32;;;;;;;16.93;100.00;100158.91;6028738;23;20094;-73
2023/09/20 07:51:23;;;;;;;6.50;6.03;;;;;;;16.63;100.00;100107.56;6057977;23;20030;-71
2023/09/20 07:53:53;;;;;;;5.88;5.47;;;;;;;17.07;100.00;100168.31;6024976;23;20105;-70
2023/09/20 07:56:20;;;;;;;5.78;5.38;;;;;;;16.78;100.00;100109.84;6056710;23;20026;-71
2023/09/20 07:58:47;;;;;;;5.65;5.32;;;;;;;17.23;100.00;100155.34;6025114;23;20883;-71
2023/09/20 08:01:20;;;;;;;5.80;5.50;;;;;;;16.99;100.00;100101.88;6053464;23;20361;-70
2023/09/20 08:03:58;;;;;;;5.95;5.63;;;;;;;17.50;100.00;100149.41;6024840;23;20089;-71
2023/09/20 08:06:29;;;;;;;5.75;5.45;;;;;;;17.66;100.00;100137.38;6046915;23;20022;-70
2023/09/20 08:08:56;;;;;;;5.60;5.20;;;;;;;17.78;100.00;100114.19;6026885;23;20034;-71
2023/09/20 08:11:23;;;;;;;5.40;5.10;;;;;;;17.84;98.04;100087.97;6055811;23;20626;-71
2023/09/20 08:13:52;;;;;;;5.32;5.10;;;;;;;17.96;96.27;100086.00;6004340;23;20050;-72
2023/09/20 08:16:20;;;;;;;5.65;5.35;;;;;;;18.11;95.72;100078.41;6030084;23;20105;-72
2023/09/20 08:19:06;;;;;;;5.35;5.13;;;;;;;17.87;93.74;99996.59;6027387;23;20035;-72
2023/09/20 08:21:34;;;;;;;5.88;5.57;;;;;;;18.09;92.40;100009.50;6001344;23;20020;-71
2023/09/20 09:00:31;;;;;;;5.63;5.32;;;;;;;18.38;89.40;100008.56;6052644;23;20667;-72
2023/09/20 09:02:59;;;;;;;6.05;5.65;;;;;;;18.33;89.45;100006.34;6010341;23;20022;-71
2023/09/20 09:05:29;;;;;;;5.70;5.40;;;;;;;18.85;89.27;100060.78;6017048;23;20034;-72
2023/09/20 09:08:01;;;;;;;5.82;5.43;;;;;;;19.00;88.13;100056.63;5973791;23;20023;-71
2023/09/20 09:10:29;;;;;;;5.43;5.13;;;;;;;18.98;87.75;100042.63;6027225;23;20041;-71
2023/09/20 09:12:58;;;;;;;5.70;5.40;;;;;;;19.00;87.61;100032.69;6010106;23;20544;-70
2023/09/20 09:15:27;;;;;;;6.30;5.90;;;;;;;18.99;87.27;100044.31;6026642;23;20031;-71
2023/09/20 09:17:54;;;;;;;5.55;5.25;;;;;;;19.13;87.11;100061.59;6007402;23;20565;-71
2023/09/20 09:20:21;;;;;;;5.40;5.10;;;;;;;19.34;86.08;100034.66;6024665;23;20030;-71
2023/09/20 09:22:52;;;;;;;5.85;5.50;;;;;;;19.60;85.63;100041.88;6025070;23;20023;-71
2023/09/20 09:25:24;;;;;;;5.95;5.65;;;;;;;19.42;84.43;99984.16;5990941;23;20035;-71
2023/09/20 09:27:51;;;;;;;5.60;5.30;;;;;;;20.02;84.54;100046.50;6024459;23;20026;-72
2023/09/20 09:30:18;;;;;;;6.15;5.50;;;;;;;20.23;82.88;100014.16;6010605;23;20035;-71
2023/09/20 09:32:47;;;;;;;6.05;5.75;;;;;;;20.48;81.30;100015.09;6040177;23;20026;-72
2023/09/20 09:35:16;;;;;;;6.13;5.65;;;;;;;20.96;80.47;100026.09;6025492;23;20031;-72
2023/09/20 09:37:50;;;;;;;7.78;6.85;;;;;;;21.19;77.78;99967.56;6038291;23;20089;-71
2023/09/20 09:40:17;;;;;;;6.00;5.50;;;;;;;21.34;77.64;99978.44;5997688;23;20458;-72
2023/09/20 09:42:44;;;;;;;14.70;8.15;;;;;;;21.59;75.08;99939.19;6027440;23;20235;-73
2023/09/20 09:45:12;;;;;;;6.53;6.03;;;;;;;21.35;75.02;99879.50;5996614;23;20027;-72
2023/09/20 09:47:41;;;;;;;5.90;5.55;;;;;;;21.88;73.50;99917.25;5997266;23;20031;-72
2023/09/20 09:50:10;;;;;;;6.88;6.43;;;;;;;22.07;72.42;99886.59;5997662;23;20430;-72
2023/09/20 09:52:40;;;;;;;5.90;5.32;;;;;;;22.74;71.48;99901.28;6020219;23;20601;-72
2023/09/20 09:55:07;;;;;;;6.55;6.10;;;;;;;22.04;70.80;99796.13;6001963;23;20019;-72
2023/09/20 09:57:34;;;;;;;6.15;5.57;;;;;;;22.68;69.33;99866.19;6024067;23;20050;-72
2023/09/20 10:00:05;;;;;;;5.78;5.47;;;;;;;22.63;68.33;99855.22;5999047;23;20093;-72
2023/09/20 10:02:33;;;;;;;5.88;5.55;;;;;;;22.86;66.44;99790.16;6020534;23;20034;-71
2023/09/20 10:05:01;;;;;;;5.70;5.30;;;;;;;21.66;65.81;99646.47;5999780;23;20035;-69
2023/09/20 10:07:34;;;;;;;5.55;5.30;;;;;;;22.39;66.32;99829.50;5999378;23;20023;-69
2023/09/20 10:10:08;;;;;;;5.78;5.47;;;;;;;22.42;67.36;99855.03;6022176;23;20133;-69
2023/09/20 10:12:38;;;;;;;5.70;5.40;;;;;;;22.62;67.05;99899.00;5995853;23;20051;-70
2023/09/20 10:15:07;;;;;;;5.75;5.45;;;;;;;22.59;65.74;99837.88;6024908;23;20019;-71
2023/09/20 10:17:34;;;;;;;5.70;5.40;;;;;;;22.37;64.74;99755.81;6001186;23;20027;-73
2023/09/20 10:20:08;;;;;;;5.60;5.30;;;;;;;22.29;65.43;99797.66;6004981;23;20023;-75
2023/09/20 10:22:41;;;;;;;5.78;5.47;;;;;;;22.24;66.82;99864.16;5995360;23;20055;-72
2023/09/20 10:25:26;;;;;;;5.70;5.38;;;;;;;22.16;65.57;99839.31;6020019;23;20453;-70
2023/09/20 10:27:53;;;;;;;5.35;5.15;;;;;;;21.92;66.77;99838.44;5998042;23;20319;-67
2023/09/20 10:30:21;;;;;;;5.93;5.50;;;;;;;22.15;66.05;99846.50;6027673;23;20047;-71
2023/09/20 10:32:47;;;;;;;5.70;5.30;;;;;;;22.17;67.66;99907.78;5994463;23;20089;-69
2023/09/20 10:35:21;;;;;;;5.90;5.60;;;;;;;22.30;67.37;99940.16;6024903;23;20107;-68
2023/09/20 10:38:05;;;;;;;5.53;5.22;;;;;;;22.58;65.66;99870.97;5995814;23;20023;-69
2023/09/20 10:40:55;;;;;;;5.60;5.20;;;;;;;22.84;65.16;99888.50;6023978;23;20105;-69
2023/09/20 10:43:41;;;;;;;5.88;5.50;;;;;;;22.95;63.97;99839.06;5997915;23;20086;-69
2023/09/20 10:46:09;;;;;;;5.75;5.45;;;;;;;23.46;63.59;99879.41;6024293;23;20089;-69
2023/09/20 10:48:41;;;;;;;5.70;5.40;;;;;;;23.49;61.67;99807.56;5997945;23;20725;-69
2023/09/20 10:51:07;;;;;;;6.72;6.32;;;;;;;23.68;61.51;99826.75;6024849;23;20725;-68
2023/09/20 10:53:52;;;;;;;5.63;5.32;;;;;;;23.62;61.47;99847.06;6000813;23;20168;-69
2023/09/20 10:56:41;;;;;;;5.70;5.40;;;;;;;23.51;59.61;99740.41;6001846;23;20030;-70
2023/09/20 10:59:14;;;;;;;5.63;5.32;;;;;;;23.28;60.12;99745.91;5995342;23;20023;-70
2023/09/20 11:01:49;;;;;;;5.68;5.38;;;;;;;23.30;60.77;99784.84;6026389;23;20015;-69
2023/09/20 11:04:15;;;;;;;5.90;5.60;;;;;;;23.60;59.77;99786.69;5999877;23;20039;-69
2023/09/20 11:06:48;;;;;;;5.63;5.30;;;;;;;24.04;58.55;99804.53;6030443;23;20029;-69
2023/09/20 11:09:15;;;;;;;5.50;5.30;;;;;;;23.94;59.15;99790.63;6021024;23;20037;-70
2023/09/20 11:11:43;;;;;;;5.60;5.30;;;;;;;24.58;57.54;99798.69;6056659;23;20036;-69
2023/09/20 11:14:10;;;;;;;5.80;5.50;;;;;;;24.94;56.05;99770.03;6020245;23;20086;-69
2023/09/20 11:16:41;;;;;;;5.70;5.43;;;;;;;24.92;54.22;99656.66;6053573;23;20026;-68
2023/09/20 11:19:10;;;;;;;5.40;5.20;;;;;;;25.04;52.89;99628.25;6005594;23;20088;-69
2023/09/20 11:21:38;;;;;;;5.90;5.50;;;;;;;24.72;53.08;99622.53;6050258;23;20042;-69
2023/09/20 11:24:06;;;;;;;6.07;5.78;;;;;;;24.64;53.48;99673.69;6013233;23;20038;-69
2023/09/20 11:26:33;;;;;;;5.90;5.60;;;;;;;24.96;53.55;99747.34;6038489;23;20018;-69
2023/09/20 11:29:00;;;;;;;6.03;5.65;;;;;;;24.75;54.07;99750.09;6020528;23;20018;-69
2023/09/20 11:31:28;;;;;;;6.00;5.70;;;;;;;24.74;53.35;99735.88;6045163;23;20508;-69
2023/09/20 11:34:03;;;;;;;5.53;5.22;;;;;;;24.30;53.25;99694.03;6021410;23;20141;-69
2023/09/20 11:36:37;;;;;;;5.72;5.43;;;;;;;24.68;53.54;99764.31;6024116;23;20078;-70
2023/09/20 11:39:05;;;;;;;5.82;5.53;;;;;;;24.59;54.27;99813.75;6024098;23;20513;-69
2023/09/20 11:41:32;;;;;;;6.00;5.60;;;;;;;24.60;54.11;99798.50;6025359;23;20077;-70
2023/09/20 11:44:05;;;;;;;6.10;5.80;;;;;;;24.24;54.52;99770.72;6030239;23;20266;-70
2023/09/20 11:46:33;;;;;;;5.65;5.30;;;;;;;24.61;54.58;99832.34;6058001;23;20037;-69
2023/09/20 11:49:02;;;;;;;5.82;5.53;;;;;;;24.32;55.24;99801.09;6001555;23;20030;-70
2023/09/20 11:51:30;;;;;;;6.00;5.70;;;;;;;24.33;54.77;99818.84;6054269;23;20598;-69
2023/09/20 11:53:58;;;;;;;5.90;5.60;;;;;;;24.61;54.92;99832.34;6028991;23;20037;-69
2023/09/20 11:56:31;;;;;;;5.68;5.38;;;;;;;24.07;54.52;99734.44;6055311;23;20026;-69
2023/09/20 11:59:02;;;;;;;6.03;5.50;;;;;;;24.56;55.51;99845.53;6029672;23;20409;-69
2023/09/20 12:01:29;;;;;;;5.70;5.40;;;;;;;24.72;54.25;99818.41;6052790;23;20449;-68
2023/09/20 12:03:56;;;;;;;5.80;5.43;;;;;;;24.55;52.94;99758.81;6006134;23;20427;-69
2023/09/20 12:06:24;;;;;;;5.95;5.65;;;;;;;24.18;53.47;99701.78;6025132;23;20031;-69